sensor_id;sensor_type;location;lat;lon;timestamp;temperature;humidity
54796;DHT22;40693;43.884;20.340;2024-03-02T00:01:11;307.60;2304.00
54796;DHT22;40693;43.884;20.340;2024-03-02T00:03:37;307.70;2304.00
54796;DHT22;40693;43.884;20.340;2024-03-02T00:06:06;307.70;2304.00
54796;DHT22;40693;43.884;20.340;2024-03-02T00:08:47;307.80;2304.00
54796;DHT22;40693;43.884;20.340;2024-03-02T00:11:13;307.80;2304.00
54796;DHT22;40693;43.884;20.340;2024-03-02T00:13:40;307.90;2304.00
54796;DHT22;40693;43.884;20.340;2024-03-02T00:16:07;307.90;2304.00
54796;DHT22;40693;43.884;20.340;2024-03-02T00:18:34;307.90;2304.00
54796;DHT22;40693;43.884;20.340;2024-03-02T00:21:00;307.80;2304.00
54796;DHT22;40693;43.884;20.340;2024-03-02T00:23:33;307.80;2304.00
54796;DHT22;40693;43.884;20.340;2024-03-02T00:26:03;307.80;2304.00
54796;DHT22;40693;43.884;20.340;2024-03-02T00:28:34;307.70;2304.00
54796;DHT22;40693;43.884;20.340;2024-03-02T00:33:35;307.70;2304.00
54796;DHT22;40693;43.884;20.340;2024-03-02T00:36:02;307.70;2304.00
54796;DHT22;40693;43.884;20.340;2024-03-02T00:38:30;307.60;2304.00
54796;DHT22;40693;43.884;20.340;2024-03-02T00:41:00;307.60;2304.00
54796;DHT22;40693;43.884;20.340;2024-03-02T00:46:01;307.60;2304.00
54796;DHT22;40693;43.884;20.340;2024-03-02T00:48:27;307.70;2304.00
54796;DHT22;40693;43.884;20.340;2024-03-02T00:50:53;307.70;2304.00
54796;DHT22;40693;43.884;20.340;2024-03-02T00:53:22;307.80;2304.00
54796;DHT22;40693;43.884;20.340;2024-03-02T00:55:50;307.90;2304.00
54796;DHT22;40693;43.884;20.340;2024-03-02T00:58:16;307.90;2304.00
54796;DHT22;40693;43.884;20.340;2024-03-02T01:00:42;308.00;2304.00
54796;DHT22;40693;43.884;20.340;2024-03-02T01:03:07;307.90;2304.00
54796;DHT22;40693;43.884;20.340;2024-03-02T01:05:33;307.90;2304.00
54796;DHT22;40693;43.884;20.340;2024-03-02T01:07:59;307.80;2304.00
54796;DHT22;40693;43.884;20.340;2024-03-02T01:10:25;307.80;2304.00
54796;DHT22;40693;43.884;20.340;2024-03-02T01:12:53;307.80;2304.00
54796;DHT22;40693;43.884;20.340;2024-03-02T01:15:19;307.70;2304.00
54796;DHT22;40693;43.884;20.340;2024-03-02T01:17:45;307.70;2304.00
54796;DHT22;40693;43.884;20.340;2024-03-02T01:20:11;307.70;2304.00
54796;DHT22;40693;43.884;20.340;2024-03-02T01:22:48;307.70;2304.00
54796;DHT22;40693;43.884;20.340;2024-03-02T01:25:16;307.60;2304.00
54796;DHT22;40693;43.884;20.340;2024-03-02T01:27:43;307.70;2304.00
54796;DHT22;40693;43.884;20.340;2024-03-02T01:30:09;307.60;2304.00
54796;DHT22;40693;43.884;20.340;2024-03-02T01:32:35;307.60;2304.00
54796;DHT22;40693;43.884;20.340;2024-03-02T01:35:00;307.60;2304.00
54796;DHT22;40693;43.884;20.340;2024-03-02T01:37:26;307.50;2304.00
54796;DHT22;40693;43.884;20.340;2024-03-02T01:39:52;307.40;2304.00
54796;DHT22;40693;43.884;20.340;2024-03-02T01:42:18;307.40;2304.00
54796;DHT22;40693;43.884;20.340;2024-03-02T01:44:46;307.40;2304.00
54796;DHT22;40693;43.884;20.340;2024-03-02T01:47:15;307.40;2304.00
54796;DHT22;40693;43.884;20.340;2024-03-02T01:49:41;307.30;2304.00
54796;DHT22;40693;43.884;20.340;2024-03-02T01:52:07;307.40;2304.00
54796;DHT22;40693;43.884;20.340;2024-03-02T01:54:33;307.40;2304.00
54796;DHT22;40693;43.884;20.340;2024-03-02T01:57:00;307.40;2304.00
54796;DHT22;40693;43.884;20.340;2024-03-02T01:59:26;307.40;2304.00
54796;DHT22;40693;43.884;20.340;2024-03-02T02:01:52;307.40;2304.00
54796;DHT22;40693;43.884;20.340;2024-03-02T02:04:18;307.40;2304.00
54796;DHT22;40693;43.884;20.340;2024-03-02T02:06:46;307.30;2304.00
54796;DHT22;40693;43.884;20.340;2024-03-02T02:09:12;307.30;2304.00
54796;DHT22;40693;43.884;20.340;2024-03-02T02:11:41;307.20;2304.00
54796;DHT22;40693;43.884;20.340;2024-03-02T02:14:06;282.50;2278.40
54796;DHT22;40693;43.884;20.340;2024-03-02T02:16:35;282.50;2278.40
54796;DHT22;40693;43.884;20.340;2024-03-02T02:19:00;282.40;2278.40
54796;DHT22;40693;43.884;20.340;2024-03-02T02:21:29;282.30;2278.40
54796;DHT22;40693;43.884;20.340;2024-03-02T02:23:54;282.40;2278.40
54796;DHT22;40693;43.884;20.340;2024-03-02T02:26:20;282.30;2278.40
54796;DHT22;40693;43.884;20.340;2024-03-02T02:28:46;282.30;2278.40
54796;DHT22;40693;43.884;20.340;2024-03-02T02:31:15;282.40;2278.40
54796;DHT22;40693;43.884;20.340;2024-03-02T02:33:41;282.40;2278.40
54796;DHT22;40693;43.884;20.340;2024-03-02T02:36:07;282.40;2278.40
54796;DHT22;40693;43.884;20.340;2024-03-02T02:38:35;282.40;2278.40
54796;DHT22;40693;43.884;20.340;2024-03-02T02:41:02;282.40;2278.40
54796;DHT22;40693;43.884;20.340;2024-03-02T02:43:33;282.40;2278.40
54796;DHT22;40693;43.884;20.340;2024-03-02T02:45:59;282.40;2278.40
54796;DHT22;40693;43.884;20.340;2024-03-02T02:48:24;307.30;2304.00
54796;DHT22;40693;43.884;20.340;2024-03-02T02:50:50;307.20;2304.00
54796;DHT22;40693;43.884;20.340;2024-03-02T02:53:16;307.30;2304.00
54796;DHT22;40693;43.884;20.340;2024-03-02T02:55:42;307.30;2304.00
54796;DHT22;40693;43.884;20.340;2024-03-02T02:58:12;307.40;2304.00
54796;DHT22;40693;43.884;20.340;2024-03-02T03:00:38;307.40;2304.00
54796;DHT22;40693;43.884;20.340;2024-03-02T03:03:04;307.40;2304.00
54796;DHT22;40693;43.884;20.340;2024-03-02T03:05:30;307.30;2304.00
54796;DHT22;40693;43.884;20.340;2024-03-02T03:07:55;307.30;2304.00
54796;DHT22;40693;43.884;20.340;2024-03-02T03:10:21;307.20;2304.00
54796;DHT22;40693;43.884;20.340;2024-03-02T03:12:48;307.20;2304.00
54796;DHT22;40693;43.884;20.340;2024-03-02T03:15:14;307.20;2304.00
54796;DHT22;40693;43.884;20.340;2024-03-02T03:17:42;282.50;2278.40
54796;DHT22;40693;43.884;20.340;2024-03-02T03:20:08;282.40;2278.40
54796;DHT22;40693;43.884;20.340;2024-03-02T03:22:37;282.40;2278.40
54796;DHT22;40693;43.884;20.340;2024-03-02T03:25:03;282.30;2278.40
54796;DHT22;40693;43.884;20.340;2024-03-02T03:27:29;282.20;2278.40
54796;DHT22;40693;43.884;20.340;2024-03-02T03:29:58;282.20;2278.40
54796;DHT22;40693;43.884;20.340;2024-03-02T03:32:24;282.20;2278.40
54796;DHT22;40693;43.884;20.340;2024-03-02T03:34:53;282.20;2278.40
54796;DHT22;40693;43.884;20.340;2024-03-02T03:37:18;282.00;2278.40
54796;DHT22;40693;43.884;20.340;2024-03-02T03:39:44;282.00;2278.40
54796;DHT22;40693;43.884;20.340;2024-03-02T03:42:10;282.00;2278.40
54796;DHT22;40693;43.884;20.340;2024-03-02T03:44:35;282.00;2278.40
54796;DHT22;40693;43.884;20.340;2024-03-02T03:47:01;282.00;2278.40
54796;DHT22;40693;43.884;20.340;2024-03-02T03:49:28;281.90;2278.40
54796;DHT22;40693;43.884;20.340;2024-03-02T03:51:53;281.90;2278.40
54796;DHT22;40693;43.884;20.340;2024-03-02T03:54:21;281.90;2278.40
54796;DHT22;40693;43.884;20.340;2024-03-02T03:56:47;281.90;2278.40
54796;DHT22;40693;43.884;20.340;2024-03-02T03:59:13;281.90;2278.40
54796;DHT22;40693;43.884;20.340;2024-03-02T04:01:39;281.80;2278.40
54796;DHT22;40693;43.884;20.340;2024-03-02T04:04:04;281.80;2278.40
54796;DHT22;40693;43.884;20.340;2024-03-02T04:06:32;281.90;2278.40
54796;DHT22;40693;43.884;20.340;2024-03-02T04:08:58;281.90;2278.40
54796;DHT22;40693;43.884;20.340;2024-03-02T04:11:24;282.00;2278.40
54796;DHT22;40693;43.884;20.340;2024-03-02T04:13:50;282.00;2278.40
54796;DHT22;40693;43.884;20.340;2024-03-02T04:16:15;282.00;2278.40
54796;DHT22;40693;43.884;20.340;2024-03-02T04:18:41;282.00;2278.40
54796;DHT22;40693;43.884;20.340;2024-03-02T04:21:07;281.90;2278.40
54796;DHT22;40693;43.884;20.340;2024-03-02T04:23:33;281.90;2278.40
54796;DHT22;40693;43.884;20.340;2024-03-02T04:25:59;281.80;2278.40
54796;DHT22;40693;43.884;20.340;2024-03-02T04:28:24;281.80;2278.40
54796;DHT22;40693;43.884;20.340;2024-03-02T04:30:50;281.80;2278.40
54796;DHT22;40693;43.884;20.340;2024-03-02T04:33:16;281.90;2278.40
54796;DHT22;40693;43.884;20.340;2024-03-02T04:35:41;282.00;2278.40
54796;DHT22;40693;43.884;20.340;2024-03-02T04:38:07;282.00;2278.40
54796;DHT22;40693;43.884;20.340;2024-03-02T04:40:33;282.10;2278.40
54796;DHT22;40693;43.884;20.340;2024-03-02T04:42:59;282.10;2278.40
54796;DHT22;40693;43.884;20.340;2024-03-02T04:45:25;282.20;2278.40
54796;DHT22;40693;43.884;20.340;2024-03-02T04:47:50;282.20;2278.40
54796;DHT22;40693;43.884;20.340;2024-03-02T04:50:16;282.20;2278.40
54796;DHT22;40693;43.884;20.340;2024-03-02T04:52:42;282.20;2278.40
54796;DHT22;40693;43.884;20.340;2024-03-02T04:55:08;282.20;2278.40
54796;DHT22;40693;43.884;20.340;2024-03-02T04:57:53;282.20;2278.40
54796;DHT22;40693;43.884;20.340;2024-03-02T05:00:22;282.30;2278.40
54796;DHT22;40693;43.884;20.340;2024-03-02T05:02:50;282.30;2278.40
54796;DHT22;40693;43.884;20.340;2024-03-02T05:05:16;282.30;2278.40
54796;DHT22;40693;43.884;20.340;2024-03-02T05:07:42;282.30;2278.40
54796;DHT22;40693;43.884;20.340;2024-03-02T05:10:09;282.30;2278.40
54796;DHT22;40693;43.884;20.340;2024-03-02T05:12:35;282.20;2278.40
54796;DHT22;40693;43.884;20.340;2024-03-02T05:15:01;282.30;2278.40
54796;DHT22;40693;43.884;20.340;2024-03-02T05:17:27;282.30;2278.40
54796;DHT22;40693;43.884;20.340;2024-03-02T05:19:53;282.40;2278.40
54796;DHT22;40693;43.884;20.340;2024-03-02T05:22:19;282.40;2278.40
54796;DHT22;40693;43.884;20.340;2024-03-02T05:24:44;282.40;2278.40
54796;DHT22;40693;43.884;20.340;2024-03-02T05:27:10;282.50;2278.40
54796;DHT22;40693;43.884;20.340;2024-03-02T05:29:36;307.20;2304.00
54796;DHT22;40693;43.884;20.340;2024-03-02T05:32:02;307.20;2304.00
54796;DHT22;40693;43.884;20.340;2024-03-02T05:34:28;307.30;2304.00
54796;DHT22;40693;43.884;20.340;2024-03-02T05:36:54;307.30;2304.00
54796;DHT22;40693;43.884;20.340;2024-03-02T05:39:20;307.20;2304.00
54796;DHT22;40693;43.884;20.340;2024-03-02T05:41:46;307.30;2304.00
54796;DHT22;40693;43.884;20.340;2024-03-02T05:44:12;307.30;2304.00
54796;DHT22;40693;43.884;20.340;2024-03-02T05:46:41;307.40;2304.00
54796;DHT22;40693;43.884;20.340;2024-03-02T05:49:07;307.20;2304.00
54796;DHT22;40693;43.884;20.340;2024-03-02T05:51:33;307.30;2304.00
54796;DHT22;40693;43.884;20.340;2024-03-02T05:53:59;307.30;2304.00
54796;DHT22;40693;43.884;20.340;2024-03-02T05:56:25;307.40;2304.00
54796;DHT22;40693;43.884;20.340;2024-03-02T05:58:50;307.40;2304.00
54796;DHT22;40693;43.884;20.340;2024-03-02T06:01:35;307.40;2304.00
54796;DHT22;40693;43.884;20.340;2024-03-02T06:04:00;307.40;2304.00
54796;DHT22;40693;43.884;20.340;2024-03-02T06:06:26;307.30;2304.00
54796;DHT22;40693;43.884;20.340;2024-03-02T06:08:52;307.30;2304.00
54796;DHT22;40693;43.884;20.340;2024-03-02T06:11:21;307.30;2304.00
54796;DHT22;40693;43.884;20.340;2024-03-02T06:13:47;307.30;2304.00
54796;DHT22;40693;43.884;20.340;2024-03-02T06:16:12;307.40;2304.00
54796;DHT22;40693;43.884;20.340;2024-03-02T06:18:38;307.40;2304.00
54796;DHT22;40693;43.884;20.340;2024-03-02T06:21:04;307.40;2304.00
54796;DHT22;40693;43.884;20.340;2024-03-02T06:23:30;307.30;2304.00
54796;DHT22;40693;43.884;20.340;2024-03-02T06:25:56;307.30;2304.00
54796;DHT22;40693;43.884;20.340;2024-03-02T06:28:22;307.40;2304.00
54796;DHT22;40693;43.884;20.340;2024-03-02T06:30:47;307.40;2304.00
54796;DHT22;40693;43.884;20.340;2024-03-02T06:33:13;307.40;2304.00
54796;DHT22;40693;43.884;20.340;2024-03-02T06:35:39;307.50;2304.00
54796;DHT22;40693;43.884;20.340;2024-03-02T06:38:05;307.60;2304.00
54796;DHT22;40693;43.884;20.340;2024-03-02T06:40:30;307.50;2304.00
54796;DHT22;40693;43.884;20.340;2024-03-02T06:42:56;307.60;2304.00
54796;DHT22;40693;43.884;20.340;2024-03-02T06:45:22;307.60;2304.00
54796;DHT22;40693;43.884;20.340;2024-03-02T06:47:48;307.60;2304.00
54796;DHT22;40693;43.884;20.340;2024-03-02T06:50:14;307.60;2304.00
54796;DHT22;40693;43.884;20.340;2024-03-02T06:52:40;307.60;2304.00
54796;DHT22;40693;43.884;20.340;2024-03-02T06:55:09;307.50;2304.00
54796;DHT22;40693;43.884;20.340;2024-03-02T06:57:35;307.40;2304.00
54796;DHT22;40693;43.884;20.340;2024-03-02T07:00:00;307.60;2304.00
54796;DHT22;40693;43.884;20.340;2024-03-02T07:02:27;307.50;2304.00
54796;DHT22;40693;43.884;20.340;2024-03-02T07:04:53;307.50;2304.00
54796;DHT22;40693;43.884;20.340;2024-03-02T07:07:19;307.40;2304.00
54796;DHT22;40693;43.884;20.340;2024-03-02T07:09:47;307.40;2304.00
54796;DHT22;40693;43.884;20.340;2024-03-02T07:12:14;307.40;2304.00
54796;DHT22;40693;43.884;20.340;2024-03-02T07:14:40;307.60;2304.00
54796;DHT22;40693;43.884;20.340;2024-03-02T07:17:36;307.50;2304.00
54796;DHT22;40693;43.884;20.340;2024-03-02T07:20:02;307.60;2304.00
54796;DHT22;40693;43.884;20.340;2024-03-02T07:22:29;307.60;2304.00
54796;DHT22;40693;43.884;20.340;2024-03-02T07:24:55;307.80;2304.00
54796;DHT22;40693;43.884;20.340;2024-03-02T07:27:21;307.90;2304.00
54796;DHT22;40693;43.884;20.340;2024-03-02T07:29:47;308.00;2304.00
54796;DHT22;40693;43.884;20.340;2024-03-02T07:32:12;308.10;2304.00
54796;DHT22;40693;43.884;20.340;2024-03-02T07:34:38;308.10;2304.00
54796;DHT22;40693;43.884;20.340;2024-03-02T07:37:04;332.80;2329.60
54796;DHT22;40693;43.884;20.340;2024-03-02T07:39:31;332.90;2329.60
54796;DHT22;40693;43.884;20.340;2024-03-02T07:41:57;332.90;2329.60
54796;DHT22;40693;43.884;20.340;2024-03-02T07:44:23;333.00;2329.60
54796;DHT22;40693;43.884;20.340;2024-03-02T07:46:49;333.10;2329.60
54796;DHT22;40693;43.884;20.340;2024-03-02T07:49:18;333.20;2329.60
54796;DHT22;40693;43.884;20.340;2024-03-02T07:51:45;333.30;2329.60
54796;DHT22;40693;43.884;20.340;2024-03-02T07:54:10;333.20;2329.60
54796;DHT22;40693;43.884;20.340;2024-03-02T07:56:36;333.30;2329.60
54796;DHT22;40693;43.884;20.340;2024-03-02T07:59:03;333.30;2329.60
54796;DHT22;40693;43.884;20.340;2024-03-02T08:01:29;333.30;2329.60
54796;DHT22;40693;43.884;20.340;2024-03-02T08:03:59;333.40;2329.60
54796;DHT22;40693;43.884;20.340;2024-03-02T08:06:28;333.50;2329.60
54796;DHT22;40693;43.884;20.340;2024-03-02T08:08:54;333.60;2329.60
54796;DHT22;40693;43.884;20.340;2024-03-02T08:11:21;333.70;2329.60
54796;DHT22;40693;43.884;20.340;2024-03-02T08:13:47;358.70;2329.60
54796;DHT22;40693;43.884;20.340;2024-03-02T08:16:16;358.40;2329.60
54796;DHT22;40693;43.884;20.340;2024-03-02T08:18:48;358.40;2329.60
54796;DHT22;40693;43.884;20.340;2024-03-02T08:21:14;358.40;2329.60
54796;DHT22;40693;43.884;20.340;2024-03-02T08:23:40;358.70;2329.60
54796;DHT22;40693;43.884;20.340;2024-03-02T08:26:11;358.70;2329.60
54796;DHT22;40693;43.884;20.340;2024-03-02T08:28:36;358.60;2329.60
54796;DHT22;40693;43.884;20.340;2024-03-02T08:31:06;358.60;2329.60
54796;DHT22;40693;43.884;20.340;2024-03-02T08:33:32;358.60;2329.60
54796;DHT22;40693;43.884;20.340;2024-03-02T08:35:58;358.60;2329.60
54796;DHT22;40693;43.884;20.340;2024-03-02T08:38:24;358.60;2329.60
54796;DHT22;40693;43.884;20.340;2024-03-02T08:40:50;358.60;2329.60
54796;DHT22;40693;43.884;20.340;2024-03-02T08:43:17;358.60;2329.60
54796;DHT22;40693;43.884;20.340;2024-03-02T08:45:43;358.70;2329.60
54796;DHT22;40693;43.884;20.340;2024-03-02T08:48:09;358.60;2329.60
54796;DHT22;40693;43.884;20.340;2024-03-02T08:50:35;358.70;2329.60
54796;DHT22;40693;43.884;20.340;2024-03-02T08:53:01;358.80;2329.60
54796;DHT22;40693;43.884;20.340;2024-03-02T08:55:26;359.00;2329.60
54796;DHT22;40693;43.884;20.340;2024-03-02T08:57:53;359.10;2329.60
54796;DHT22;40693;43.884;20.340;2024-03-02T09:00:19;359.30;2329.60
54796;DHT22;40693;43.884;20.340;2024-03-02T09:02:45;384.00;2329.60
54796;DHT22;40693;43.884;20.340;2024-03-02T09:05:11;384.10;2329.60
54796;DHT22;40693;43.884;20.340;2024-03-02T09:07:37;384.30;2329.60
54796;DHT22;40693;43.884;20.340;2024-03-02T09:10:05;384.60;2329.60
54796;DHT22;40693;43.884;20.340;2024-03-02T09:12:32;384.70;2329.60
54796;DHT22;40693;43.884;20.340;2024-03-02T09:14:58;384.90;2329.60
54796;DHT22;40693;43.884;20.340;2024-03-02T09:17:24;409.70;2355.20
54796;DHT22;40693;43.884;20.340;2024-03-02T09:19:50;409.80;2355.20
54796;DHT22;40693;43.884;20.340;2024-03-02T09:22:18;410.00;2355.20
54796;DHT22;40693;43.884;20.340;2024-03-02T09:24:44;410.20;2355.20
54796;DHT22;40693;43.884;20.340;2024-03-02T09:27:10;410.40;2355.20
54796;DHT22;40693;43.884;20.340;2024-03-02T09:29:36;410.30;2355.20
54796;DHT22;40693;43.884;20.340;2024-03-02T09:32:02;410.50;2355.20
54796;DHT22;40693;43.884;20.340;2024-03-02T09:34:28;435.40;2355.20
54796;DHT22;40693;43.884;20.340;2024-03-02T09:36:53;435.50;2355.20
54796;DHT22;40693;43.884;20.340;2024-03-02T09:39:19;435.60;2355.20
54796;DHT22;40693;43.884;20.340;2024-03-02T09:41:45;435.80;2355.20
54796;DHT22;40693;43.884;20.340;2024-03-02T09:44:12;435.90;2355.20
54796;DHT22;40693;43.884;20.340;2024-03-02T09:46:38;460.80;2380.80
54796;DHT22;40693;43.884;20.340;2024-03-02T09:49:04;460.80;2380.80
54796;DHT22;40693;43.884;20.340;2024-03-02T09:51:31;461.00;2380.80
54796;DHT22;40693;43.884;20.340;2024-03-02T09:53:56;461.10;2380.80
54796;DHT22;40693;43.884;20.340;2024-03-02T09:56:23;461.30;2380.80
54796;DHT22;40693;43.884;20.340;2024-03-02T09:58:49;486.50;2329.60
54796;DHT22;40693;43.884;20.340;2024-03-02T10:01:14;461.70;2227.20
54796;DHT22;40693;43.884;20.340;2024-03-02T10:03:40;461.70;2176.00
54796;DHT22;40693;43.884;20.340;2024-03-02T10:06:40;461.70;2150.40
54796;DHT22;40693;43.884;20.340;2024-03-02T10:09:32;461.70;2176.00
54796;DHT22;40693;43.884;20.340;2024-03-02T10:12:12;486.50;2176.00
54796;DHT22;40693;43.884;20.340;2024-03-02T10:15:15;461.70;2150.40
54796;DHT22;40693;43.884;20.340;2024-03-02T10:17:45;461.70;2201.60
54796;DHT22;40693;43.884;20.340;2024-03-02T10:20:25;486.50;2201.60
54796;DHT22;40693;43.884;20.340;2024-03-02T10:22:51;486.50;2124.80
54796;DHT22;40693;43.884;20.340;2024-03-02T10:25:33;486.60;2124.80
54796;DHT22;40693;43.884;20.340;2024-03-02T10:27:59;486.50;2099.20
54796;DHT22;40693;43.884;20.340;2024-03-02T10:30:26;486.50;2099.20
54796;DHT22;40693;43.884;20.340;2024-03-02T10:32:56;486.70;2048.00
54796;DHT22;40693;43.884;20.340;2024-03-02T10:35:23;486.60;2099.20
54796;DHT22;40693;43.884;20.340;2024-03-02T10:37:50;486.50;2073.60
54796;DHT22;40693;43.884;20.340;2024-03-02T10:40:16;486.70;2124.80
54796;DHT22;40693;43.884;20.340;2024-03-02T10:42:42;487.00;2099.20
54796;DHT22;40693;43.884;20.340;2024-03-02T10:45:12;487.10;2048.00
54796;DHT22;40693;43.884;20.340;2024-03-02T10:47:42;487.20;1971.20
54796;DHT22;40693;43.884;20.340;2024-03-02T10:50:09;487.20;1971.20
54796;DHT22;40693;43.884;20.340;2024-03-02T10:52:35;487.00;1945.60
54796;DHT22;40693;43.884;20.340;2024-03-02T10:55:02;487.00;1945.60
54796;DHT22;40693;43.884;20.340;2024-03-02T10:57:40;487.20;1996.80
54796;DHT22;40693;43.884;20.340;2024-03-02T11:00:08;487.30;1945.60
54796;DHT22;40693;43.884;20.340;2024-03-02T11:02:51;512.30;1920.00
54796;DHT22;40693;43.884;20.340;2024-03-02T11:05:31;512.30;1894.40
54796;DHT22;40693;43.884;20.340;2024-03-02T11:08:02;512.20;1894.40
54796;DHT22;40693;43.884;20.340;2024-03-02T11:10:40;512.30;1920.00
54796;DHT22;40693;43.884;20.340;2024-03-02T11:13:09;512.40;1843.20
54796;DHT22;40693;43.884;20.340;2024-03-02T11:15:36;512.20;1843.20
54796;DHT22;40693;43.884;20.340;2024-03-02T11:18:05;512.30;1868.80
54796;DHT22;40693;43.884;20.340;2024-03-02T11:20:38;512.60;1868.80
54796;DHT22;40693;43.884;20.340;2024-03-02T11:23:09;537.80;1843.20
54796;DHT22;40693;43.884;20.340;2024-03-02T11:25:36;537.70;1792.00
54796;DHT22;40693;43.884;20.340;2024-03-02T11:28:03;512.90;1766.40
54796;DHT22;40693;43.884;20.340;2024-03-02T11:37:52;512.80;1740.80
54796;DHT22;40693;43.884;20.340;2024-03-02T11:40:36;512.90;1766.40
54796;DHT22;40693;43.884;20.340;2024-03-02T11:43:05;537.90;1766.40
54796;DHT22;40693;43.884;20.340;2024-03-02T11:45:31;537.80;1715.20
54796;DHT22;40693;43.884;20.340;2024-03-02T11:47:59;537.70;1740.80
54796;DHT22;40693;43.884;20.340;2024-03-02T11:50:34;538.10;1740.80
54796;DHT22;40693;43.884;20.340;2024-03-02T11:53:08;537.70;1740.80
54796;DHT22;40693;43.884;20.340;2024-03-02T11:55:36;538.00;1766.40
54796;DHT22;40693;43.884;20.340;2024-03-02T11:58:05;538.30;1689.60
54796;DHT22;40693;43.884;20.340;2024-03-02T12:00:31;538.30;1689.60
54796;DHT22;40693;43.884;20.340;2024-03-02T12:03:17;563.30;1664.00
54796;DHT22;40693;43.884;20.340;2024-03-02T12:05:54;563.20;1664.00
54796;DHT22;40693;43.884;20.340;2024-03-02T12:08:21;563.40;1664.00
54796;DHT22;40693;43.884;20.340;2024-03-02T12:11:02;563.60;1612.80
54796;DHT22;40693;43.884;20.340;2024-03-02T12:13:30;563.20;1587.20
54796;DHT22;40693;43.884;20.340;2024-03-02T12:16:10;537.90;1638.40
54796;DHT22;40693;43.884;20.340;2024-03-02T12:18:36;538.00;1689.60
54796;DHT22;40693;43.884;20.340;2024-03-02T12:21:02;538.30;1638.40
54796;DHT22;40693;43.884;20.340;2024-03-02T12:23:29;538.40;1638.40
54796;DHT22;40693;43.884;20.340;2024-03-02T12:25:55;563.20;1664.00
54796;DHT22;40693;43.884;20.340;2024-03-02T12:28:22;563.20;1664.00
54796;DHT22;40693;43.884;20.340;2024-03-02T12:30:48;563.30;1638.40
54796;DHT22;40693;43.884;20.340;2024-03-02T12:33:14;563.60;1638.40
54796;DHT22;40693;43.884;20.340;2024-03-02T12:35:40;564.00;1561.60
54796;DHT22;40693;43.884;20.340;2024-03-02T12:38:06;563.80;1510.40
54796;DHT22;40693;43.884;20.340;2024-03-02T12:40:32;563.30;1612.80
54796;DHT22;40693;43.884;20.340;2024-03-02T12:42:58;563.60;1638.40
54796;DHT22;40693;43.884;20.340;2024-03-02T12:45:24;563.60;1587.20
54796;DHT22;40693;43.884;20.340;2024-03-02T12:47:51;563.80;1612.80
54796;DHT22;40693;43.884;20.340;2024-03-02T12:50:17;563.60;1587.20
54796;DHT22;40693;43.884;20.340;2024-03-02T12:52:43;563.40;1612.80
54796;DHT22;40693;43.884;20.340;2024-03-02T12:55:09;563.50;1638.40
54796;DHT22;40693;43.884;20.340;2024-03-02T12:57:35;563.60;1587.20
54796;DHT22;40693;43.884;20.340;2024-03-02T13:00:03;563.50;1587.20
54796;DHT22;40693;43.884;20.340;2024-03-02T13:02:35;563.30;1587.20
54796;DHT22;40693;43.884;20.340;2024-03-02T13:05:01;563.60;1612.80
54796;DHT22;40693;43.884;20.340;2024-03-02T13:07:28;564.00;1536.00
54796;DHT22;40693;43.884;20.340;2024-03-02T13:09:55;563.90;1561.60
54796;DHT22;40693;43.884;20.340;2024-03-02T13:12:22;563.80;1561.60
54796;DHT22;40693;43.884;20.340;2024-03-02T13:14:53;563.80;1536.00
54796;DHT22;40693;43.884;20.340;2024-03-02T13:17:19;563.80;1536.00
54796;DHT22;40693;43.884;20.340;2024-03-02T13:19:59;563.70;1536.00
54796;DHT22;40693;43.884;20.340;2024-03-02T13:22:25;563.70;1536.00
54796;DHT22;40693;43.884;20.340;2024-03-02T13:24:52;563.50;1561.60
54796;DHT22;40693;43.884;20.340;2024-03-02T13:27:20;563.70;1587.20
54796;DHT22;40693;43.884;20.340;2024-03-02T13:29:46;563.80;1536.00
54796;DHT22;40693;43.884;20.340;2024-03-02T13:32:16;563.90;1587.20
54796;DHT22;40693;43.884;20.340;2024-03-02T13:34:42;564.10;1536.00
54796;DHT22;40693;43.884;20.340;2024-03-02T13:37:09;588.90;1536.00
54796;DHT22;40693;43.884;20.340;2024-03-02T13:39:35;588.90;1484.80
54796;DHT22;40693;43.884;20.340;2024-03-02T13:42:10;589.10;1510.40
54796;DHT22;40693;43.884;20.340;2024-03-02T13:44:37;589.30;1510.40
54796;DHT22;40693;43.884;20.340;2024-03-02T13:47:04;589.40;1459.20
54796;DHT22;40693;43.884;20.340;2024-03-02T13:49:30;589.20;1459.20
54796;DHT22;40693;43.884;20.340;2024-03-02T13:52:03;589.20;1459.20
54796;DHT22;40693;43.884;20.340;2024-03-02T13:54:40;589.10;1484.80
54796;DHT22;40693;43.884;20.340;2024-03-02T13:57:08;588.80;1484.80
54796;DHT22;40693;43.884;20.340;2024-03-02T13:59:34;563.80;1510.40
54796;DHT22;40693;43.884;20.340;2024-03-02T14:02:02;563.70;1536.00
54796;DHT22;40693;43.884;20.340;2024-03-02T14:04:34;563.50;1536.00
54796;DHT22;40693;43.884;20.340;2024-03-02T14:07:01;563.60;1536.00
54796;DHT22;40693;43.884;20.340;2024-03-02T14:09:27;563.70;1536.00
54796;DHT22;40693;43.884;20.340;2024-03-02T14:11:53;563.30;1536.00
54796;DHT22;40693;43.884;20.340;2024-03-02T14:14:19;563.50;1536.00
54796;DHT22;40693;43.884;20.340;2024-03-02T14:16:45;563.60;1536.00
54796;DHT22;40693;43.884;20.340;2024-03-02T14:19:12;563.30;1536.00
54796;DHT22;40693;43.884;20.340;2024-03-02T14:21:41;563.30;1536.00
54796;DHT22;40693;43.884;20.340;2024-03-02T14:24:07;563.30;1536.00
54796;DHT22;40693;43.884;20.340;2024-03-02T14:26:33;538.50;1510.40
54796;DHT22;40693;43.884;20.340;2024-03-02T14:28:59;538.40;1510.40
54796;DHT22;40693;43.884;20.340;2024-03-02T14:31:27;563.20;1536.00
54796;DHT22;40693;43.884;20.340;2024-03-02T14:33:53;538.50;1510.40
54796;DHT22;40693;43.884;20.340;2024-03-02T14:36:20;538.30;1510.40
54796;DHT22;40693;43.884;20.340;2024-03-02T14:38:46;538.20;1510.40
54796;DHT22;40693;43.884;20.340;2024-03-02T14:41:12;538.30;1510.40
54796;DHT22;40693;43.884;20.340;2024-03-02T14:43:39;538.40;1510.40
54796;DHT22;40693;43.884;20.340;2024-03-02T14:46:05;538.30;1510.40
54796;DHT22;40693;43.884;20.340;2024-03-02T14:48:31;538.40;1510.40
54796;DHT22;40693;43.884;20.340;2024-03-02T14:51:09;563.20;1536.00